Aérodrome :
LOGIN :

S'inscrire | Disclaimer

   EN    FR    IT 

 










Légende :    VFR   VFR Marginal   IFR   IFR Intensif   IFR Très Intensif
Visi : 
Plafond : 
>= 8 km
>= 3000ft
5 à 8 km
1000 à 3000 ft
1500m à 5 km
500 à 1000 ft
800 à 1500m
200 à 500 ft
< 800m
< 200 ft
Symboles :   Orages  Brouillard  Fortes neiges  Fortes précipitations  Vent > 20 kt
SIGMETs :   Divers  Orages  Givrage  Turbulence  Onde Orograph.  Cendres Volcan.







- Altitude de l'aérodrome : 616 ft
- Code IATA : PUF
- Voir les cartes d'approche


LFBP - Pau

DERNIER METAR :
  • 172300Z AUTO 11002KT 8000 FEW037 03/02 Q1021 NOSIG

METARs EXPIRÉS :
  • 172230Z AUTO 15005KT CAVOK 04/03 Q1021 NOSIG
  • 172200Z AUTO 17003KT 140V210 9999 ///TCU 04/03 Q1021 TEMPO 4000 SHRA BECMG BKN030
  • 172130Z AUTO 17002KT 9999 FEW035/// SCT098/// ///TCU 05/04 Q1021 TEMPO 4000 SHRA BECMG BKN030
  • 172100Z AUTO VRB03KT 9999 FEW040/// BKN086/// ///CB 05/04 Q1021 TEMPO 4000 SHRA
  • 172030Z AUTO 19003KT 150V290 9999 -RA FEW015/// SCT035/// BKN044/// ///CB 06/05 Q1021 TEMPO 4000 SHRA

TAF TAF LFBP
Valide du 17 à 18h jusqu'au 18 à 18h UTC


171700Z 1718/1818 21007KT 9999 BKN030
TEMPO 1718/1723 4000 SHRA BKN020TCU
PROB30
TEMPO 1805/1818 4000 -SHRA BKN020TCU
TEMPO 1802/1811 16005KT
Pas de NOTAMs connus pour ce terrain.



MET'MAP, la Météo Aéronautique d'un coup d'oeil ! - Copyright ORBIFLY Décembre 2007 - Disclaimer

ORBIFLY MET'MAP TEAM :

Programmation & Développement : Alexandra Zaïnal
Conception & Développement : Baudouin d'Aumeries
Co-Programmation & Développement : Marc-Olivier Méhu
Soutien technique & logistique : Manuel Goepfert

Contact : metmap@orbifly.com




SOURCES & CREDITS :

   NOAA